Tropical Cyclones
[Index]
Main Index Home Page Stock Weather Photos Extreme Storms Discussion Storm News and Storm Chasing Reports Tropical Cyclones / Hurricanes / Typhoons Weather Data and Links Wild Fires / Bushfires Weather Observation Techniques Weather Picture Catalogue Tornado Pictures and Reports Stock Video Footage and DVDs for sale
Season 2012-2013 Tropical Cyclone IMELDA Track Map
Season 2012-2013 Summaries (Operational Data): [AU] [SIO] [SPAC] [SH]
<<- Previous TC | 2012-2013 Season | Next TC ->>

click for intensity scale information  Lat/long Grid: Show Hide

 Date Labels: Show Hide

Operational Tropical Cyclone Data : JTWC Advisories

Name: IMELDA
Number: 1321

01 Apr 2013 18:00 UTC to 17 Apr 2013 00:00 UTC

    date/time    lat    long     hPa   cat  kts
2013-04-01 18    7.6    71.6    1010         15          
2013-04-02 00   10.5    72.0    1010         15          
2013-04-02 06   10.5    72.1    1010         15          
2013-04-02 12    8.6    73.9    1010         15          
2013-04-02 18    8.5    74.4    1010         15          
2013-04-03 00    8.4    74.8    1010         15          
2013-04-03 06    8.4    75.3    1007         20          
2013-04-03 12    8.6    75.7    1007         20          
2013-04-03 18    9.0    76.2    1004         25          
2013-04-04 00    9.6    76.6    1000         30          
2013-04-04 06   10.0    77.8    1000         30          
2013-04-04 12   10.7    78.1    1004         25          
2013-04-04 18   10.5    77.6    1004         25          
2013-04-05 00   10.5    77.0    1004         25          
2013-04-05 06   11.2    75.9    1004         25          
2013-04-05 12   11.3    74.7    1000         30          
2013-04-05 18   11.1    73.6    1000         30          
2013-04-06 00   11.0    73.0    1000         30          
2013-04-06 06   10.9    72.6     996    1    35          
2013-04-06 12   10.8    72.0     996    1    35          
2013-04-06 18   10.6    71.5     993    1    40          
2013-04-07 00   10.6    70.9     996    1    35          
2013-04-07 06   10.7    70.2    1000         30          
2013-04-07 12   11.1    69.1     996    1    35          
2013-04-07 18   11.2    67.8     993    1    40          
2013-04-08 00   10.9    66.4     993    1    40          
2013-04-08 06   10.9    65.2     993    1    40          
2013-04-08 12   10.9    64.3     993    1    40          
2013-04-08 18   11.1    63.3     989    1    45          
2013-04-09 00   11.4    62.2     989    1    45          
2013-04-09 06   11.5    61.1     985    2    50          
2013-04-09 12   11.5    60.3     982    2    55          
2013-04-09 18   11.6    59.5     978    2    60          
2013-04-10 00   11.8    58.8     974    3    65          
2013-04-10 06   12.0    58.4     970    3    70          
2013-04-10 12   12.2    58.0     967    3    75          
2013-04-10 18   12.5    57.9     959    3    85          
2013-04-11 00   12.7    57.9     963    3    80          
2013-04-11 06   12.9    58.0     967    3    75          
2013-04-11 12   13.1    58.2     974    3    65          
2013-04-11 18   13.3    58.4     982    2    55          
2013-04-12 00   13.6    58.6     985    2    50          
2013-04-12 06   14.1    58.9     989    1    45          
2013-04-12 12   14.6    59.1     993    1    40          
2013-04-12 18   15.3    59.4     996    1    35          
2013-04-13 00   15.8    59.4     996    1    35          
2013-04-13 06   16.3    59.3     996    1    35          
2013-04-13 12   16.6    59.0     989    1    45          
2013-04-13 18   16.8    59.0     985    2    50          
2013-04-14 00   17.0    59.1     982    2    55          
2013-04-14 06   17.2    59.4     978    2    60          
2013-04-14 12   17.7    59.9     974    3    65          
2013-04-14 18   18.3    60.6     967    3    75          
2013-04-15 00   18.9    61.3     967    3    75          
2013-04-15 06   19.5    61.8     974    3    65          
2013-04-15 12   19.9    62.0     974    3    65          
2013-04-15 18   20.3    62.2     982    2    55          
2013-04-16 00   20.6    62.5     989    1    45          
2013-04-16 06   21.0    62.9     996    1    35          
2013-04-16 12   21.4    63.0    1000         30          
2013-04-16 18   21.3    63.3    1007                     
2013-04-17 00   20.3    62.8    1007                     
Winds are 10-min average.

Tropical cyclone tracks developed by Michael Bath using operational warnings and advisories and Google Maps.


[Australian Severe Weather index] [Copyright Notice] [Email Contacts] [Search This Site] [Privacy Policy]
Document: tropical_cyclone_imelda.htm Updated: 2 May 2017